sensor_id;sensor_type;location;lat;lon;timestamp;P1;durP1;ratioP1;P2;durP2;ratioP2
62435;SDS011;48480;50.252;18.848;2024-01-30T00:01:29;24.60;;;13.50;;
62435;SDS011;48480;50.252;18.848;2024-01-30T00:04:13;29.60;;;13.60;;
62435;SDS011;48480;50.252;18.848;2024-01-30T00:06:57;27.20;;;13.20;;
62435;SDS011;48480;50.252;18.848;2024-01-30T00:09:42;26.80;;;12.90;;
62435;SDS011;48480;50.252;18.848;2024-01-30T00:12:27;33.60;;;15.10;;
62435;SDS011;48480;50.252;18.848;2024-01-30T00:15:11;25.80;;;13.50;;
62435;SDS011;48480;50.252;18.848;2024-01-30T00:17:56;29.70;;;13.60;;
62435;SDS011;48480;50.252;18.848;2024-01-30T00:20:40;28.20;;;13.60;;
62435;SDS011;48480;50.252;18.848;2024-01-30T00:23:24;32.30;;;16.10;;
62435;SDS011;48480;50.252;18.848;2024-01-30T00:26:09;35.30;;;18.30;;
62435;SDS011;48480;50.252;18.848;2024-01-30T00:28:53;39.70;;;19.10;;
62435;SDS011;48480;50.252;18.848;2024-01-30T00:31:38;34.90;;;16.60;;
62435;SDS011;48480;50.252;18.848;2024-01-30T00:34:22;36.40;;;20.50;;
62435;SDS011;48480;50.252;18.848;2024-01-30T00:37:06;37.60;;;20.30;;
62435;SDS011;48480;50.252;18.848;2024-01-30T00:39:50;34.70;;;19.10;;
62435;SDS011;48480;50.252;18.848;2024-01-30T00:42:35;40.40;;;20.00;;
62435;SDS011;48480;50.252;18.848;2024-01-30T00:45:19;27.50;;;14.50;;
62435;SDS011;48480;50.252;18.848;2024-01-30T00:48:04;29.50;;;13.50;;
62435;SDS011;48480;50.252;18.848;2024-01-30T00:50:48;21.10;;;11.80;;
62435;SDS011;48480;50.252;18.848;2024-01-30T00:53:32;23.10;;;11.90;;
62435;SDS011;48480;50.252;18.848;2024-01-30T00:56:16;21.60;;;10.70;;
62435;SDS011;48480;50.252;18.848;2024-01-30T00:59:02;21.60;;;11.80;;
62435;SDS011;48480;50.252;18.848;2024-01-30T01:01:46;23.10;;;12.40;;
62435;SDS011;48480;50.252;18.848;2024-01-30T01:04:30;23.70;;;13.00;;
62435;SDS011;48480;50.252;18.848;2024-01-30T01:07:15;27.80;;;13.00;;
62435;SDS011;48480;50.252;18.848;2024-01-30T01:09:59;25.30;;;12.90;;
62435;SDS011;48480;50.252;18.848;2024-01-30T01:12:43;26.30;;;12.30;;
62435;SDS011;48480;50.252;18.848;2024-01-30T01:15:27;30.20;;;14.00;;
62435;SDS011;48480;50.252;18.848;2024-01-30T01:18:11;25.30;;;12.70;;
62435;SDS011;48480;50.252;18.848;2024-01-30T01:20:56;26.30;;;13.10;;
62435;SDS011;48480;50.252;18.848;2024-01-30T01:23:40;29.10;;;13.70;;
62435;SDS011;48480;50.252;18.848;2024-01-30T01:26:24;24.40;;;13.70;;
62435;SDS011;48480;50.252;18.848;2024-01-30T01:29:08;24.00;;;11.60;;
62435;SDS011;48480;50.252;18.848;2024-01-30T01:31:55;20.50;;;11.20;;
62435;SDS011;48480;50.252;18.848;2024-01-30T01:34:40;18.60;;;10.40;;
62435;SDS011;48480;50.252;18.848;2024-01-30T01:37:24;21.90;;;11.00;;
62435;SDS011;48480;50.252;18.848;2024-01-30T01:40:10;22.10;;;11.50;;
62435;SDS011;48480;50.252;18.848;2024-01-30T01:42:55;20.00;;;10.80;;
62435;SDS011;48480;50.252;18.848;2024-01-30T01:45:39;23.20;;;12.70;;
62435;SDS011;48480;50.252;18.848;2024-01-30T01:48:23;25.90;;;14.00;;
62435;SDS011;48480;50.252;18.848;2024-01-30T01:51:08;28.30;;;14.10;;
62435;SDS011;48480;50.252;18.848;2024-01-30T01:53:53;23.10;;;12.50;;
62435;SDS011;48480;50.252;18.848;2024-01-30T01:56:39;30.00;;;15.10;;
62435;SDS011;48480;50.252;18.848;2024-01-30T01:59:26;22.00;;;13.40;;
62435;SDS011;48480;50.252;18.848;2024-01-30T02:02:10;19.70;;;11.60;;
62435;SDS011;48480;50.252;18.848;2024-01-30T02:04:59;18.30;;;11.70;;
62435;SDS011;48480;50.252;18.848;2024-01-30T02:07:44;20.10;;;11.10;;
62435;SDS011;48480;50.252;18.848;2024-01-30T02:10:28;20.30;;;11.20;;
62435;SDS011;48480;50.252;18.848;2024-01-30T02:13:12;22.00;;;11.20;;
62435;SDS011;48480;50.252;18.848;2024-01-30T02:15:57;26.60;;;15.40;;
62435;SDS011;48480;50.252;18.848;2024-01-30T02:18:41;24.60;;;14.30;;
62435;SDS011;48480;50.252;18.848;2024-01-30T02:21:28;26.40;;;14.30;;
62435;SDS011;48480;50.252;18.848;2024-01-30T02:24:13;31.90;;;16.60;;
62435;SDS011;48480;50.252;18.848;2024-01-30T02:26:57;25.70;;;15.30;;
62435;SDS011;48480;50.252;18.848;2024-01-30T02:29:41;20.20;;;12.70;;
62435;SDS011;48480;50.252;18.848;2024-01-30T02:32:26;19.70;;;12.00;;
62435;SDS011;48480;50.252;18.848;2024-01-30T02:35:10;22.00;;;12.70;;
62435;SDS011;48480;50.252;18.848;2024-01-30T02:37:54;21.50;;;13.00;;
62435;SDS011;48480;50.252;18.848;2024-01-30T02:40:38;19.50;;;11.00;;
62435;SDS011;48480;50.252;18.848;2024-01-30T02:43:22;19.80;;;10.70;;
62435;SDS011;48480;50.252;18.848;2024-01-30T02:46:06;19.40;;;10.80;;
62435;SDS011;48480;50.252;18.848;2024-01-30T02:48:50;17.40;;;10.00;;
62435;SDS011;48480;50.252;18.848;2024-01-30T02:51:35;18.00;;;11.10;;
62435;SDS011;48480;50.252;18.848;2024-01-30T02:54:20;19.60;;;11.20;;
62435;SDS011;48480;50.252;18.848;2024-01-30T02:57:04;22.90;;;12.60;;
62435;SDS011;48480;50.252;18.848;2024-01-30T02:59:48;17.90;;;10.10;;
62435;SDS011;48480;50.252;18.848;2024-01-30T03:02:32;20.40;;;9.70;;
62435;SDS011;48480;50.252;18.848;2024-01-30T03:05:17;18.10;;;10.80;;
62435;SDS011;48480;50.252;18.848;2024-01-30T03:08:02;15.60;;;10.20;;
62435;SDS011;48480;50.252;18.848;2024-01-30T03:10:48;14.70;;;9.30;;
62435;SDS011;48480;50.252;18.848;2024-01-30T03:13:33;17.30;;;9.80;;
62435;SDS011;48480;50.252;18.848;2024-01-30T03:16:17;16.50;;;10.20;;
62435;SDS011;48480;50.252;18.848;2024-01-30T03:19:01;20.50;;;11.20;;
62435;SDS011;48480;50.252;18.848;2024-01-30T03:21:47;16.80;;;9.70;;
62435;SDS011;48480;50.252;18.848;2024-01-30T03:24:32;22.30;;;11.40;;
62435;SDS011;48480;50.252;18.848;2024-01-30T03:27:16;17.10;;;10.30;;
62435;SDS011;48480;50.252;18.848;2024-01-30T03:30:00;21.50;;;11.10;;
62435;SDS011;48480;50.252;18.848;2024-01-30T03:32:44;20.60;;;11.70;;
62435;SDS011;48480;50.252;18.848;2024-01-30T03:35:29;22.90;;;11.70;;
62435;SDS011;48480;50.252;18.848;2024-01-30T03:38:13;17.50;;;11.00;;
62435;SDS011;48480;50.252;18.848;2024-01-30T03:40:56;18.50;;;10.00;;
62435;SDS011;48480;50.252;18.848;2024-01-30T03:43:40;20.20;;;10.70;;
62435;SDS011;48480;50.252;18.848;2024-01-30T03:46:24;16.60;;;9.00;;
62435;SDS011;48480;50.252;18.848;2024-01-30T03:49:09;17.80;;;9.90;;
62435;SDS011;48480;50.252;18.848;2024-01-30T03:51:54;17.20;;;10.20;;
62435;SDS011;48480;50.252;18.848;2024-01-30T03:54:38;20.40;;;11.30;;
62435;SDS011;48480;50.252;18.848;2024-01-30T03:57:22;18.90;;;11.00;;
62435;SDS011;48480;50.252;18.848;2024-01-30T04:00:07;18.20;;;11.40;;
62435;SDS011;48480;50.252;18.848;2024-01-30T04:02:52;19.50;;;10.80;;
62435;SDS011;48480;50.252;18.848;2024-01-30T04:05:36;17.80;;;10.70;;
62435;SDS011;48480;50.252;18.848;2024-01-30T04:08:20;16.40;;;9.70;;
62435;SDS011;48480;50.252;18.848;2024-01-30T04:11:05;19.40;;;10.30;;
62435;SDS011;48480;50.252;18.848;2024-01-30T04:13:49;20.30;;;9.50;;
62435;SDS011;48480;50.252;18.848;2024-01-30T04:16:33;18.10;;;10.20;;
62435;SDS011;48480;50.252;18.848;2024-01-30T04:19:17;20.10;;;8.60;;
62435;SDS011;48480;50.252;18.848;2024-01-30T04:22:02;16.10;;;9.50;;
62435;SDS011;48480;50.252;18.848;2024-01-30T04:24:46;15.50;;;8.70;;
62435;SDS011;48480;50.252;18.848;2024-01-30T04:27:30;17.00;;;9.50;;
62435;SDS011;48480;50.252;18.848;2024-01-30T04:30:14;16.80;;;10.10;;
62435;SDS011;48480;50.252;18.848;2024-01-30T04:32:59;19.20;;;9.40;;
62435;SDS011;48480;50.252;18.848;2024-01-30T04:35:43;21.10;;;11.50;;
62435;SDS011;48480;50.252;18.848;2024-01-30T04:38:27;20.80;;;10.60;;
62435;SDS011;48480;50.252;18.848;2024-01-30T04:41:12;20.40;;;12.20;;
62435;SDS011;48480;50.252;18.848;2024-01-30T04:43:56;21.30;;;12.10;;
62435;SDS011;48480;50.252;18.848;2024-01-30T04:46:41;21.50;;;12.40;;
62435;SDS011;48480;50.252;18.848;2024-01-30T04:49:25;25.60;;;13.50;;
62435;SDS011;48480;50.252;18.848;2024-01-30T04:52:09;23.50;;;12.30;;
62435;SDS011;48480;50.252;18.848;2024-01-30T04:54:54;19.70;;;10.70;;
62435;SDS011;48480;50.252;18.848;2024-01-30T04:57:39;19.20;;;11.20;;
62435;SDS011;48480;50.252;18.848;2024-01-30T05:00:22;22.90;;;12.10;;
62435;SDS011;48480;50.252;18.848;2024-01-30T05:03:07;21.10;;;10.90;;
62435;SDS011;48480;50.252;18.848;2024-01-30T05:05:51;25.00;;;12.00;;
62435;SDS011;48480;50.252;18.848;2024-01-30T05:08:35;23.10;;;12.60;;
62435;SDS011;48480;50.252;18.848;2024-01-30T05:11:23;21.90;;;11.40;;
62435;SDS011;48480;50.252;18.848;2024-01-30T05:14:07;22.00;;;12.50;;
62435;SDS011;48480;50.252;18.848;2024-01-30T05:16:52;22.20;;;12.80;;
62435;SDS011;48480;50.252;18.848;2024-01-30T05:19:37;24.50;;;12.30;;
62435;SDS011;48480;50.252;18.848;2024-01-30T05:22:21;28.30;;;16.10;;
62435;SDS011;48480;50.252;18.848;2024-01-30T05:25:06;32.00;;;17.00;;
62435;SDS011;48480;50.252;18.848;2024-01-30T05:27:51;25.40;;;12.70;;
62435;SDS011;48480;50.252;18.848;2024-01-30T05:30:35;25.50;;;14.10;;
62435;SDS011;48480;50.252;18.848;2024-01-30T05:33:19;26.00;;;14.00;;
62435;SDS011;48480;50.252;18.848;2024-01-30T05:36:03;24.90;;;12.60;;
62435;SDS011;48480;50.252;18.848;2024-01-30T05:38:47;20.80;;;11.80;;
62435;SDS011;48480;50.252;18.848;2024-01-30T05:41:31;22.30;;;12.10;;
62435;SDS011;48480;50.252;18.848;2024-01-30T05:44:16;26.20;;;11.70;;
62435;SDS011;48480;50.252;18.848;2024-01-30T05:47:00;21.00;;;10.90;;
62435;SDS011;48480;50.252;18.848;2024-01-30T05:49:44;18.30;;;10.00;;
62435;SDS011;48480;50.252;18.848;2024-01-30T05:52:28;21.60;;;9.30;;
62435;SDS011;48480;50.252;18.848;2024-01-30T05:55:12;19.00;;;9.60;;
62435;SDS011;48480;50.252;18.848;2024-01-30T05:57:57;13.30;;;7.70;;
62435;SDS011;48480;50.252;18.848;2024-01-30T06:00:41;17.50;;;9.90;;
62435;SDS011;48480;50.252;18.848;2024-01-30T06:03:25;16.80;;;9.70;;
62435;SDS011;48480;50.252;18.848;2024-01-30T06:06:09;17.30;;;10.10;;
62435;SDS011;48480;50.252;18.848;2024-01-30T06:08:53;19.30;;;11.40;;
62435;SDS011;48480;50.252;18.848;2024-01-30T06:11:39;19.60;;;11.80;;
62435;SDS011;48480;50.252;18.848;2024-01-30T06:14:24;19.70;;;12.10;;
62435;SDS011;48480;50.252;18.848;2024-01-30T06:17:08;22.20;;;11.90;;
62435;SDS011;48480;50.252;18.848;2024-01-30T06:19:52;21.60;;;10.60;;
62435;SDS011;48480;50.252;18.848;2024-01-30T06:22:37;20.60;;;11.00;;
62435;SDS011;48480;50.252;18.848;2024-01-30T06:25:21;21.50;;;12.40;;
62435;SDS011;48480;50.252;18.848;2024-01-30T06:28:06;22.80;;;11.30;;
62435;SDS011;48480;50.252;18.848;2024-01-30T06:30:50;18.20;;;9.40;;
62435;SDS011;48480;50.252;18.848;2024-01-30T06:33:34;19.50;;;9.90;;
62435;SDS011;48480;50.252;18.848;2024-01-30T06:36:19;19.00;;;10.70;;
62435;SDS011;48480;50.252;18.848;2024-01-30T06:39:03;19.30;;;10.80;;
62435;SDS011;48480;50.252;18.848;2024-01-30T06:41:48;25.10;;;13.20;;
62435;SDS011;48480;50.252;18.848;2024-01-30T06:44:32;20.40;;;10.60;;
62435;SDS011;48480;50.252;18.848;2024-01-30T06:47:16;16.90;;;9.50;;
62435;SDS011;48480;50.252;18.848;2024-01-30T06:50:00;18.10;;;9.80;;
62435;SDS011;48480;50.252;18.848;2024-01-30T06:52:46;18.90;;;10.10;;
62435;SDS011;48480;50.252;18.848;2024-01-30T06:55:30;23.70;;;11.00;;
62435;SDS011;48480;50.252;18.848;2024-01-30T06:58:14;19.60;;;10.60;;
62435;SDS011;48480;50.252;18.848;2024-01-30T07:00:59;19.70;;;11.00;;
62435;SDS011;48480;50.252;18.848;2024-01-30T07:03:43;16.90;;;9.50;;
62435;SDS011;48480;50.252;18.848;2024-01-30T07:06:27;15.50;;;8.40;;
62435;SDS011;48480;50.252;18.848;2024-01-30T07:09:11;17.10;;;9.20;;
62435;SDS011;48480;50.252;18.848;2024-01-30T07:11:56;16.30;;;8.80;;
62435;SDS011;48480;50.252;18.848;2024-01-30T07:14:42;15.50;;;8.30;;
62435;SDS011;48480;50.252;18.848;2024-01-30T07:17:26;18.50;;;10.90;;
62435;SDS011;48480;50.252;18.848;2024-01-30T07:20:11;17.30;;;8.70;;
62435;SDS011;48480;50.252;18.848;2024-01-30T07:22:56;17.90;;;9.30;;
62435;SDS011;48480;50.252;18.848;2024-01-30T07:25:40;18.90;;;9.40;;
62435;SDS011;48480;50.252;18.848;2024-01-30T07:28:27;15.20;;;9.20;;
62435;SDS011;48480;50.252;18.848;2024-01-30T07:31:11;20.00;;;9.60;;
62435;SDS011;48480;50.252;18.848;2024-01-30T07:33:55;22.60;;;11.40;;
62435;SDS011;48480;50.252;18.848;2024-01-30T07:36:39;21.90;;;11.30;;
62435;SDS011;48480;50.252;18.848;2024-01-30T07:39:23;21.20;;;11.00;;
62435;SDS011;48480;50.252;18.848;2024-01-30T07:42:07;22.00;;;8.90;;
62435;SDS011;48480;50.252;18.848;2024-01-30T07:44:52;15.20;;;8.40;;
62435;SDS011;48480;50.252;18.848;2024-01-30T07:47:36;16.10;;;8.80;;
62435;SDS011;48480;50.252;18.848;2024-01-30T07:50:21;14.20;;;9.10;;
62435;SDS011;48480;50.252;18.848;2024-01-30T07:53:05;17.70;;;10.30;;
62435;SDS011;48480;50.252;18.848;2024-01-30T07:55:49;17.30;;;9.30;;
62435;SDS011;48480;50.252;18.848;2024-01-30T07:58:33;18.20;;;9.70;;
62435;SDS011;48480;50.252;18.848;2024-01-30T08:01:18;19.50;;;10.80;;
62435;SDS011;48480;50.252;18.848;2024-01-30T08:04:02;15.30;;;9.00;;
62435;SDS011;48480;50.252;18.848;2024-01-30T08:06:46;16.40;;;9.50;;
62435;SDS011;48480;50.252;18.848;2024-01-30T08:09:31;19.20;;;10.20;;
62435;SDS011;48480;50.252;18.848;2024-01-30T08:12:15;18.30;;;10.30;;
62435;SDS011;48480;50.252;18.848;2024-01-30T08:15:00;17.70;;;10.70;;
62435;SDS011;48480;50.252;18.848;2024-01-30T08:17:44;16.60;;;9.00;;
62435;SDS011;48480;50.252;18.848;2024-01-30T08:20:29;19.30;;;11.20;;
62435;SDS011;48480;50.252;18.848;2024-01-30T08:23:13;20.30;;;11.50;;
62435;SDS011;48480;50.252;18.848;2024-01-30T08:25:57;20.10;;;11.30;;
62435;SDS011;48480;50.252;18.848;2024-01-30T08:28:42;22.60;;;11.40;;
62435;SDS011;48480;50.252;18.848;2024-01-30T08:31:26;18.90;;;11.00;;
62435;SDS011;48480;50.252;18.848;2024-01-30T08:34:11;18.20;;;11.20;;
62435;SDS011;48480;50.252;18.848;2024-01-30T08:36:55;18.70;;;10.40;;
62435;SDS011;48480;50.252;18.848;2024-01-30T08:39:39;22.20;;;11.90;;
62435;SDS011;48480;50.252;18.848;2024-01-30T08:42:23;17.80;;;11.40;;
62435;SDS011;48480;50.252;18.848;2024-01-30T08:45:09;21.10;;;13.00;;
62435;SDS011;48480;50.252;18.848;2024-01-30T08:47:54;20.40;;;11.60;;
62435;SDS011;48480;50.252;18.848;2024-01-30T08:50:38;20.50;;;11.80;;
62435;SDS011;48480;50.252;18.848;2024-01-30T08:53:23;23.90;;;13.50;;
62435;SDS011;48480;50.252;18.848;2024-01-30T08:56:07;23.20;;;13.00;;
62435;SDS011;48480;50.252;18.848;2024-01-30T08:58:52;21.80;;;12.60;;
62435;SDS011;48480;50.252;18.848;2024-01-30T09:01:37;20.80;;;12.70;;
62435;SDS011;48480;50.252;18.848;2024-01-30T09:04:21;20.00;;;11.60;;
62435;SDS011;48480;50.252;18.848;2024-01-30T09:07:08;20.70;;;11.70;;
62435;SDS011;48480;50.252;18.848;2024-01-30T09:09:53;18.10;;;11.30;;
62435;SDS011;48480;50.252;18.848;2024-01-30T09:12:37;19.00;;;11.10;;
62435;SDS011;48480;50.252;18.848;2024-01-30T09:15:21;16.70;;;10.60;;
62435;SDS011;48480;50.252;18.848;2024-01-30T09:18:05;19.00;;;11.00;;
62435;SDS011;48480;50.252;18.848;2024-01-30T09:20:50;17.00;;;10.80;;
62435;SDS011;48480;50.252;18.848;2024-01-30T09:23:34;14.90;;;8.80;;
62435;SDS011;48480;50.252;18.848;2024-01-30T09:26:13;18.70;;;11.30;;
62435;SDS011;48480;50.252;18.848;2024-01-30T09:28:57;19.70;;;11.20;;
62435;SDS011;48480;50.252;18.848;2024-01-30T09:31:45;18.20;;;10.70;;
62435;SDS011;48480;50.252;18.848;2024-01-30T09:34:29;18.40;;;10.60;;
62435;SDS011;48480;50.252;18.848;2024-01-30T09:37:13;14.80;;;9.90;;
62435;SDS011;48480;50.252;18.848;2024-01-30T09:39:59;16.70;;;10.50;;
62435;SDS011;48480;50.252;18.848;2024-01-30T09:42:43;16.80;;;10.50;;
62435;SDS011;48480;50.252;18.848;2024-01-30T09:45:30;16.90;;;10.20;;
62435;SDS011;48480;50.252;18.848;2024-01-30T09:48:16;16.10;;;11.20;;
62435;SDS011;48480;50.252;18.848;2024-01-30T09:51:00;14.40;;;9.60;;
62435;SDS011;48480;50.252;18.848;2024-01-30T09:53:46;13.40;;;9.30;;
62435;SDS011;48480;50.252;18.848;2024-01-30T09:56:31;13.90;;;9.60;;
62435;SDS011;48480;50.252;18.848;2024-01-30T09:59:15;15.90;;;9.20;;
62435;SDS011;48480;50.252;18.848;2024-01-30T10:02:00;12.40;;;7.70;;
62435;SDS011;48480;50.252;18.848;2024-01-30T10:04:44;15.60;;;9.50;;
62435;SDS011;48480;50.252;18.848;2024-01-30T10:07:31;14.30;;;9.30;;
62435;SDS011;48480;50.252;18.848;2024-01-30T10:10:15;16.70;;;8.60;;
62435;SDS011;48480;50.252;18.848;2024-01-30T10:12:59;14.00;;;8.80;;
62435;SDS011;48480;50.252;18.848;2024-01-30T10:15:44;13.80;;;9.40;;
62435;SDS011;48480;50.252;18.848;2024-01-30T10:18:29;15.00;;;9.00;;
62435;SDS011;48480;50.252;18.848;2024-01-30T10:21:13;16.00;;;9.40;;
62435;SDS011;48480;50.252;18.848;2024-01-30T10:23:57;14.40;;;8.80;;
62435;SDS011;48480;50.252;18.848;2024-01-30T10:26:43;12.60;;;8.60;;
62435;SDS011;48480;50.252;18.848;2024-01-30T10:29:27;15.40;;;9.20;;
62435;SDS011;48480;50.252;18.848;2024-01-30T10:32:12;15.50;;;9.50;;
62435;SDS011;48480;50.252;18.848;2024-01-30T10:34:57;15.50;;;8.60;;
62435;SDS011;48480;50.252;18.848;2024-01-30T10:37:43;15.20;;;9.20;;
62435;SDS011;48480;50.252;18.848;2024-01-30T10:40:28;12.20;;;8.30;;
62435;SDS011;48480;50.252;18.848;2024-01-30T10:43:13;14.40;;;8.70;;
62435;SDS011;48480;50.252;18.848;2024-01-30T10:46:17;14.10;;;7.80;;
62435;SDS011;48480;50.252;18.848;2024-01-30T10:49:02;14.00;;;8.30;;
62435;SDS011;48480;50.252;18.848;2024-01-30T10:51:50;11.80;;;7.40;;
62435;SDS011;48480;50.252;18.848;2024-01-30T10:54:39;12.40;;;8.00;;
62435;SDS011;48480;50.252;18.848;2024-01-30T10:57:24;11.50;;;7.70;;
62435;SDS011;48480;50.252;18.848;2024-01-30T11:00:11;16.60;;;9.20;;
62435;SDS011;48480;50.252;18.848;2024-01-30T11:03:01;15.10;;;9.30;;
62435;SDS011;48480;50.252;18.848;2024-01-30T11:05:48;16.30;;;8.90;;
62435;SDS011;48480;50.252;18.848;2024-01-30T11:08:35;13.10;;;8.10;;
62435;SDS011;48480;50.252;18.848;2024-01-30T11:11:19;12.30;;;7.60;;
62435;SDS011;48480;50.252;18.848;2024-01-30T11:14:05;13.50;;;8.10;;
62435;SDS011;48480;50.252;18.848;2024-01-30T11:16:49;14.70;;;9.50;;
62435;SDS011;48480;50.252;18.848;2024-01-30T11:19:34;14.60;;;7.90;;
62435;SDS011;48480;50.252;18.848;2024-01-30T11:22:44;13.80;;;8.00;;
62435;SDS011;48480;50.252;18.848;2024-01-30T11:25:34;14.00;;;8.10;;
62435;SDS011;48480;50.252;18.848;2024-01-30T11:28:20;13.00;;;8.50;;
62435;SDS011;48480;50.252;18.848;2024-01-30T11:31:05;13.30;;;7.30;;
62435;SDS011;48480;50.252;18.848;2024-01-30T11:33:55;11.90;;;7.50;;
62435;SDS011;48480;50.252;18.848;2024-01-30T11:36:40;12.50;;;7.60;;
62435;SDS011;48480;50.252;18.848;2024-01-30T11:39:29;16.70;;;8.40;;
62435;SDS011;48480;50.252;18.848;2024-01-30T11:42:14;13.70;;;8.10;;
62435;SDS011;48480;50.252;18.848;2024-01-30T11:44:59;14.20;;;8.40;;
62435;SDS011;48480;50.252;18.848;2024-01-30T11:47:46;13.00;;;8.60;;
62435;SDS011;48480;50.252;18.848;2024-01-30T11:50:31;13.90;;;8.10;;
62435;SDS011;48480;50.252;18.848;2024-01-30T11:53:19;11.70;;;7.60;;
62435;SDS011;48480;50.252;18.848;2024-01-30T11:56:05;10.00;;;7.50;;
62435;SDS011;48480;50.252;18.848;2024-01-30T11:58:50;14.00;;;7.00;;
62435;SDS011;48480;50.252;18.848;2024-01-30T12:01:36;11.90;;;7.40;;
62435;SDS011;48480;50.252;18.848;2024-01-30T12:04:20;11.90;;;7.50;;
62435;SDS011;48480;50.252;18.848;2024-01-30T12:07:04;13.50;;;8.50;;
62435;SDS011;48480;50.252;18.848;2024-01-30T12:09:53;12.60;;;8.10;;
62435;SDS011;48480;50.252;18.848;2024-01-30T12:12:38;13.50;;;9.20;;
62435;SDS011;48480;50.252;18.848;2024-01-30T12:15:22;17.30;;;9.90;;
62435;SDS011;48480;50.252;18.848;2024-01-30T12:18:07;18.00;;;9.00;;
62435;SDS011;48480;50.252;18.848;2024-01-30T12:21:01;13.60;;;8.60;;
62435;SDS011;48480;50.252;18.848;2024-01-30T12:23:45;10.80;;;7.30;;
62435;SDS011;48480;50.252;18.848;2024-01-30T12:26:30;12.60;;;7.40;;
62435;SDS011;48480;50.252;18.848;2024-01-30T12:29:14;14.50;;;8.60;;
62435;SDS011;48480;50.252;18.848;2024-01-30T12:31:59;12.40;;;7.80;;
62435;SDS011;48480;50.252;18.848;2024-01-30T12:37:42;12.30;;;8.20;;
62435;SDS011;48480;50.252;18.848;2024-01-30T12:40:27;14.70;;;9.10;;
62435;SDS011;48480;50.252;18.848;2024-01-30T12:43:13;17.30;;;9.20;;
62435;SDS011;48480;50.252;18.848;2024-01-30T12:45:58;16.30;;;8.60;;
62435;SDS011;48480;50.252;18.848;2024-01-30T12:48:43;13.80;;;8.90;;
62435;SDS011;48480;50.252;18.848;2024-01-30T12:51:27;11.10;;;5.80;;
62435;SDS011;48480;50.252;18.848;2024-01-30T12:54:12;13.70;;;8.70;;
62435;SDS011;48480;50.252;18.848;2024-01-30T12:56:56;15.20;;;8.30;;
62435;SDS011;48480;50.252;18.848;2024-01-30T12:59:41;12.80;;;7.60;;
62435;SDS011;48480;50.252;18.848;2024-01-30T13:02:25;14.00;;;7.90;;
62435;SDS011;48480;50.252;18.848;2024-01-30T13:05:14;15.20;;;8.40;;
62435;SDS011;48480;50.252;18.848;2024-01-30T13:08:01;15.20;;;9.40;;
62435;SDS011;48480;50.252;18.848;2024-01-30T13:10:46;14.20;;;8.90;;
62435;SDS011;48480;50.252;18.848;2024-01-30T13:13:30;14.70;;;8.40;;
62435;SDS011;48480;50.252;18.848;2024-01-30T13:16:14;16.70;;;8.40;;
62435;SDS011;48480;50.252;18.848;2024-01-30T13:18:58;11.10;;;6.90;;
62435;SDS011;48480;50.252;18.848;2024-01-30T13:21:44;11.70;;;7.40;;
62435;SDS011;48480;50.252;18.848;2024-01-30T13:24:29;14.80;;;7.60;;
62435;SDS011;48480;50.252;18.848;2024-01-30T13:27:13;11.60;;;7.30;;
62435;SDS011;48480;50.252;18.848;2024-01-30T13:30:08;10.40;;;7.20;;
62435;SDS011;48480;50.252;18.848;2024-01-30T13:32:53;14.70;;;8.80;;
62435;SDS011;48480;50.252;18.848;2024-01-30T13:35:38;10.60;;;7.60;;
62435;SDS011;48480;50.252;18.848;2024-01-30T13:38:22;9.10;;;6.00;;
62435;SDS011;48480;50.252;18.848;2024-01-30T13:41:06;24.40;;;12.00;;
62435;SDS011;48480;50.252;18.848;2024-01-30T13:43:50;15.00;;;9.10;;
62435;SDS011;48480;50.252;18.848;2024-01-30T13:46:34;20.40;;;9.20;;
62435;SDS011;48480;50.252;18.848;2024-01-30T13:49:19;16.70;;;8.60;;
62435;SDS011;48480;50.252;18.848;2024-01-30T13:52:03;14.60;;;7.10;;
62435;SDS011;48480;50.252;18.848;2024-01-30T13:54:48;17.80;;;9.40;;
62435;SDS011;48480;50.252;18.848;2024-01-30T13:57:32;16.30;;;7.90;;
62435;SDS011;48480;50.252;18.848;2024-01-30T14:00:19;14.90;;;8.90;;
62435;SDS011;48480;50.252;18.848;2024-01-30T14:03:06;17.10;;;9.10;;
62435;SDS011;48480;50.252;18.848;2024-01-30T14:05:50;14.20;;;8.20;;
62435;SDS011;48480;50.252;18.848;2024-01-30T14:08:34;16.60;;;9.00;;
62435;SDS011;48480;50.252;18.848;2024-01-30T14:11:18;21.20;;;10.50;;
62435;SDS011;48480;50.252;18.848;2024-01-30T14:14:02;24.30;;;13.10;;
62435;SDS011;48480;50.252;18.848;2024-01-30T14:16:47;24.60;;;12.80;;
62435;SDS011;48480;50.252;18.848;2024-01-30T14:19:30;24.20;;;11.90;;
62435;SDS011;48480;50.252;18.848;2024-01-30T14:22:15;25.10;;;12.70;;
62435;SDS011;48480;50.252;18.848;2024-01-30T14:24:59;23.60;;;12.80;;
62435;SDS011;48480;50.252;18.848;2024-01-30T14:27:47;30.90;;;14.50;;
62435;SDS011;48480;50.252;18.848;2024-01-30T14:30:31;22.90;;;12.30;;
62435;SDS011;48480;50.252;18.848;2024-01-30T14:33:15;31.00;;;15.60;;
62435;SDS011;48480;50.252;18.848;2024-01-30T14:36:00;19.90;;;11.30;;
62435;SDS011;48480;50.252;18.848;2024-01-30T14:38:44;21.40;;;10.30;;
62435;SDS011;48480;50.252;18.848;2024-01-30T14:41:29;16.00;;;8.90;;
62435;SDS011;48480;50.252;18.848;2024-01-30T14:44:13;14.30;;;8.40;;
62435;SDS011;48480;50.252;18.848;2024-01-30T14:46:57;13.00;;;7.20;;
62435;SDS011;48480;50.252;18.848;2024-01-30T14:49:41;14.40;;;8.60;;
62435;SDS011;48480;50.252;18.848;2024-01-30T14:52:26;12.80;;;7.20;;
62435;SDS011;48480;50.252;18.848;2024-01-30T14:55:10;11.30;;;7.70;;
62435;SDS011;48480;50.252;18.848;2024-01-30T14:57:54;13.90;;;8.80;;
62435;SDS011;48480;50.252;18.848;2024-01-30T15:00:38;11.40;;;8.10;;
62435;SDS011;48480;50.252;18.848;2024-01-30T15:03:22;16.00;;;9.10;;
62435;SDS011;48480;50.252;18.848;2024-01-30T15:06:08;15.40;;;9.70;;
62435;SDS011;48480;50.252;18.848;2024-01-30T15:08:52;17.90;;;11.40;;
62435;SDS011;48480;50.252;18.848;2024-01-30T15:11:36;19.40;;;11.80;;
62435;SDS011;48480;50.252;18.848;2024-01-30T15:14:20;26.50;;;13.50;;
62435;SDS011;48480;50.252;18.848;2024-01-30T15:17:04;23.50;;;11.90;;
62435;SDS011;48480;50.252;18.848;2024-01-30T15:19:48;21.70;;;11.00;;
62435;SDS011;48480;50.252;18.848;2024-01-30T15:22:34;20.30;;;10.70;;
62435;SDS011;48480;50.252;18.848;2024-01-30T15:25:18;23.70;;;11.80;;
62435;SDS011;48480;50.252;18.848;2024-01-30T15:28:02;18.80;;;10.80;;
62435;SDS011;48480;50.252;18.848;2024-01-30T15:30:47;20.40;;;11.20;;
62435;SDS011;48480;50.252;18.848;2024-01-30T15:33:31;24.40;;;13.10;;
62435;SDS011;48480;50.252;18.848;2024-01-30T15:36:16;22.50;;;12.30;;
62435;SDS011;48480;50.252;18.848;2024-01-30T15:39:00;43.20;;;18.10;;
62435;SDS011;48480;50.252;18.848;2024-01-30T15:41:44;25.00;;;12.90;;
62435;SDS011;48480;50.252;18.848;2024-01-30T15:44:28;19.60;;;10.70;;
62435;SDS011;48480;50.252;18.848;2024-01-30T15:47:14;19.50;;;10.70;;
62435;SDS011;48480;50.252;18.848;2024-01-30T15:49:58;24.90;;;13.70;;
62435;SDS011;48480;50.252;18.848;2024-01-30T15:52:42;20.20;;;11.20;;
62435;SDS011;48480;50.252;18.848;2024-01-30T15:55:26;23.20;;;12.30;;
62435;SDS011;48480;50.252;18.848;2024-01-30T15:58:10;20.00;;;11.60;;